sensor_id;sensor_type;location;lat;lon;timestamp;P1;durP1;ratioP1;P2;durP2;ratioP2
78004;SDS011;67209;51.698;-0.292;2023-04-25T00:01:16;14.23;;;3.70;;
78004;SDS011;67209;51.698;-0.292;2023-04-25T00:03:43;13.93;;;3.17;;
78004;SDS011;67209;51.698;-0.292;2023-04-25T00:06:10;13.65;;;3.13;;
78004;SDS011;67209;51.698;-0.292;2023-04-25T00:08:36;8.13;;;2.72;;
78004;SDS011;67209;51.698;-0.292;2023-04-25T00:11:02;10.63;;;3.80;;
78004;SDS011;67209;51.698;-0.292;2023-04-25T00:13:28;12.65;;;3.53;;
78004;SDS011;67209;51.698;-0.292;2023-04-25T00:15:54;14.02;;;2.85;;
78004;SDS011;67209;51.698;-0.292;2023-04-25T00:18:23;9.68;;;2.85;;
78004;SDS011;67209;51.698;-0.292;2023-04-25T00:20:49;13.10;;;2.92;;
78004;SDS011;67209;51.698;-0.292;2023-04-25T00:23:16;16.40;;;3.70;;
78004;SDS011;67209;51.698;-0.292;2023-04-25T00:25:46;9.45;;;3.17;;
78004;SDS011;67209;51.698;-0.292;2023-04-25T00:28:12;13.60;;;3.08;;
78004;SDS011;67209;51.698;-0.292;2023-04-25T00:30:39;13.73;;;2.83;;
78004;SDS011;67209;51.698;-0.292;2023-04-25T00:33:05;12.00;;;3.55;;
78004;SDS011;67209;51.698;-0.292;2023-04-25T00:35:31;7.75;;;2.47;;
78004;SDS011;67209;51.698;-0.292;2023-04-25T00:37:57;12.02;;;3.08;;
78004;SDS011;67209;51.698;-0.292;2023-04-25T00:40:23;11.45;;;3.22;;
78004;SDS011;67209;51.698;-0.292;2023-04-25T00:42:50;15.50;;;2.90;;
78004;SDS011;67209;51.698;-0.292;2023-04-25T00:45:17;10.05;;;3.13;;
78004;SDS011;67209;51.698;-0.292;2023-04-25T00:47:43;9.43;;;3.47;;
78004;SDS011;67209;51.698;-0.292;2023-04-25T00:50:10;12.63;;;3.00;;
78004;SDS011;67209;51.698;-0.292;2023-04-25T00:52:37;11.68;;;3.08;;
78004;SDS011;67209;51.698;-0.292;2023-04-25T00:55:04;19.25;;;3.75;;
78004;SDS011;67209;51.698;-0.292;2023-04-25T00:57:30;7.47;;;2.78;;
78004;SDS011;67209;51.698;-0.292;2023-04-25T00:59:56;9.32;;;2.97;;
78004;SDS011;67209;51.698;-0.292;2023-04-25T01:02:23;10.18;;;2.95;;
78004;SDS011;67209;51.698;-0.292;2023-04-25T01:04:50;13.00;;;2.97;;
78004;SDS011;67209;51.698;-0.292;2023-04-25T01:07:16;11.80;;;3.92;;
78004;SDS011;67209;51.698;-0.292;2023-04-25T01:09:42;12.27;;;3.03;;
78004;SDS011;67209;51.698;-0.292;2023-04-25T01:12:08;12.98;;;2.47;;
78004;SDS011;67209;51.698;-0.292;2023-04-25T01:14:34;14.82;;;3.08;;
78004;SDS011;67209;51.698;-0.292;2023-04-25T01:17:00;11.63;;;2.97;;
78004;SDS011;67209;51.698;-0.292;2023-04-25T01:19:27;6.68;;;2.47;;
78004;SDS011;67209;51.698;-0.292;2023-04-25T01:21:53;6.40;;;2.55;;
78004;SDS011;67209;51.698;-0.292;2023-04-25T01:24:19;9.40;;;2.58;;
78004;SDS011;67209;51.698;-0.292;2023-04-25T01:26:45;8.60;;;2.40;;
78004;SDS011;67209;51.698;-0.292;2023-04-25T01:29:17;14.65;;;3.47;;
78004;SDS011;67209;51.698;-0.292;2023-04-25T01:31:44;7.63;;;2.47;;
78004;SDS011;67209;51.698;-0.292;2023-04-25T01:34:10;13.35;;;3.00;;
78004;SDS011;67209;51.698;-0.292;2023-04-25T01:36:36;6.78;;;2.33;;
78004;SDS011;67209;51.698;-0.292;2023-04-25T01:39:02;10.60;;;2.85;;
78004;SDS011;67209;51.698;-0.292;2023-04-25T01:41:29;8.73;;;2.33;;
78004;SDS011;67209;51.698;-0.292;2023-04-25T01:43:55;13.48;;;3.42;;
78004;SDS011;67209;51.698;-0.292;2023-04-25T01:46:21;11.57;;;3.63;;
78004;SDS011;67209;51.698;-0.292;2023-04-25T01:48:47;6.90;;;2.17;;
78004;SDS011;67209;51.698;-0.292;2023-04-25T01:51:13;7.13;;;2.33;;
78004;SDS011;67209;51.698;-0.292;2023-04-25T01:53:40;12.85;;;3.08;;
78004;SDS011;67209;51.698;-0.292;2023-04-25T01:56:06;9.88;;;2.85;;
78004;SDS011;67209;51.698;-0.292;2023-04-25T01:58:32;18.63;;;3.45;;
78004;SDS011;67209;51.698;-0.292;2023-04-25T02:00:58;12.65;;;2.45;;
78004;SDS011;67209;51.698;-0.292;2023-04-25T02:03:25;7.50;;;2.30;;
78004;SDS011;67209;51.698;-0.292;2023-04-25T02:05:51;6.15;;;2.15;;
78004;SDS011;67209;51.698;-0.292;2023-04-25T02:08:17;8.80;;;2.67;;
78004;SDS011;67209;51.698;-0.292;2023-04-25T02:10:45;8.18;;;2.17;;
78004;SDS011;67209;51.698;-0.292;2023-04-25T02:13:11;10.52;;;2.65;;
78004;SDS011;67209;51.698;-0.292;2023-04-25T02:15:37;12.60;;;2.22;;
78004;SDS011;67209;51.698;-0.292;2023-04-25T02:18:03;13.85;;;2.67;;
78004;SDS011;67209;51.698;-0.292;2023-04-25T02:20:29;12.38;;;2.78;;
78004;SDS011;67209;51.698;-0.292;2023-04-25T02:22:56;7.00;;;2.05;;
78004;SDS011;67209;51.698;-0.292;2023-04-25T02:25:22;14.10;;;3.15;;
78004;SDS011;67209;51.698;-0.292;2023-04-25T02:27:48;9.30;;;2.35;;
78004;SDS011;67209;51.698;-0.292;2023-04-25T02:30:15;4.88;;;1.50;;
78004;SDS011;67209;51.698;-0.292;2023-04-25T02:32:41;13.63;;;3.03;;
78004;SDS011;67209;51.698;-0.292;2023-04-25T02:35:07;10.73;;;2.65;;
78004;SDS011;67209;51.698;-0.292;2023-04-25T02:37:34;10.13;;;2.45;;
78004;SDS011;67209;51.698;-0.292;2023-04-25T02:40:01;9.65;;;2.47;;
78004;SDS011;67209;51.698;-0.292;2023-04-25T02:42:28;11.98;;;2.67;;
78004;SDS011;67209;51.698;-0.292;2023-04-25T02:44:54;8.40;;;2.40;;
78004;SDS011;67209;51.698;-0.292;2023-04-25T02:47:20;11.43;;;2.42;;
78004;SDS011;67209;51.698;-0.292;2023-04-25T02:49:46;11.05;;;2.72;;
78004;SDS011;67209;51.698;-0.292;2023-04-25T02:52:12;11.07;;;2.58;;
78004;SDS011;67209;51.698;-0.292;2023-04-25T02:54:38;10.70;;;2.72;;
78004;SDS011;67209;51.698;-0.292;2023-04-25T02:57:04;6.40;;;2.08;;
78004;SDS011;67209;51.698;-0.292;2023-04-25T02:59:30;12.90;;;3.00;;
78004;SDS011;67209;51.698;-0.292;2023-04-25T03:01:56;6.15;;;1.83;;
78004;SDS011;67209;51.698;-0.292;2023-04-25T03:04:22;8.68;;;2.60;;
78004;SDS011;67209;51.698;-0.292;2023-04-25T03:06:49;15.00;;;3.03;;
78004;SDS011;67209;51.698;-0.292;2023-04-25T03:09:15;13.93;;;2.88;;
78004;SDS011;67209;51.698;-0.292;2023-04-25T03:11:41;7.07;;;2.75;;
78004;SDS011;67209;51.698;-0.292;2023-04-25T03:14:07;10.07;;;2.30;;
78004;SDS011;67209;51.698;-0.292;2023-04-25T03:16:33;10.20;;;2.47;;
78004;SDS011;67209;51.698;-0.292;2023-04-25T03:18:59;9.70;;;2.50;;
78004;SDS011;67209;51.698;-0.292;2023-04-25T03:21:25;9.55;;;2.70;;
78004;SDS011;67209;51.698;-0.292;2023-04-25T03:23:51;7.82;;;2.25;;
78004;SDS011;67209;51.698;-0.292;2023-04-25T03:26:17;9.27;;;2.75;;
78004;SDS011;67209;51.698;-0.292;2023-04-25T03:28:44;12.95;;;3.00;;
78004;SDS011;67209;51.698;-0.292;2023-04-25T03:31:10;12.98;;;2.55;;
78004;SDS011;67209;51.698;-0.292;2023-04-25T03:33:36;12.25;;;2.55;;
78004;SDS011;67209;51.698;-0.292;2023-04-25T03:36:02;9.27;;;2.90;;
78004;SDS011;67209;51.698;-0.292;2023-04-25T03:38:28;9.35;;;2.78;;
78004;SDS011;67209;51.698;-0.292;2023-04-25T03:40:54;7.43;;;2.53;;
78004;SDS011;67209;51.698;-0.292;2023-04-25T03:43:21;10.27;;;3.10;;
78004;SDS011;67209;51.698;-0.292;2023-04-25T03:45:47;14.00;;;3.20;;
78004;SDS011;67209;51.698;-0.292;2023-04-25T03:48:14;16.38;;;2.95;;
78004;SDS011;67209;51.698;-0.292;2023-04-25T03:50:40;13.10;;;2.85;;
78004;SDS011;67209;51.698;-0.292;2023-04-25T03:53:06;17.25;;;3.53;;
78004;SDS011;67209;51.698;-0.292;2023-04-25T03:55:32;11.40;;;2.83;;
78004;SDS011;67209;51.698;-0.292;2023-04-25T03:57:58;16.20;;;3.10;;
78004;SDS011;67209;51.698;-0.292;2023-04-25T04:00:25;12.88;;;4.43;;
78004;SDS011;67209;51.698;-0.292;2023-04-25T04:02:51;9.00;;;2.50;;
78004;SDS011;67209;51.698;-0.292;2023-04-25T04:05:17;12.13;;;2.78;;
78004;SDS011;67209;51.698;-0.292;2023-04-25T04:07:43;12.73;;;3.45;;
78004;SDS011;67209;51.698;-0.292;2023-04-25T04:10:09;7.38;;;2.00;;
78004;SDS011;67209;51.698;-0.292;2023-04-25T04:12:36;7.10;;;2.20;;
78004;SDS011;67209;51.698;-0.292;2023-04-25T04:15:02;17.10;;;2.85;;
78004;SDS011;67209;51.698;-0.292;2023-04-25T04:17:29;12.25;;;3.13;;
78004;SDS011;67209;51.698;-0.292;2023-04-25T04:19:55;11.93;;;2.95;;
78004;SDS011;67209;51.698;-0.292;2023-04-25T04:22:21;11.15;;;2.85;;
78004;SDS011;67209;51.698;-0.292;2023-04-25T04:24:47;13.75;;;2.95;;
78004;SDS011;67209;51.698;-0.292;2023-04-25T04:27:14;14.55;;;2.50;;
78004;SDS011;67209;51.698;-0.292;2023-04-25T04:29:42;14.07;;;2.97;;
78004;SDS011;67209;51.698;-0.292;2023-04-25T04:32:08;12.18;;;2.95;;
78004;SDS011;67209;51.698;-0.292;2023-04-25T04:34:34;11.80;;;2.60;;
78004;SDS011;67209;51.698;-0.292;2023-04-25T04:37:00;12.82;;;3.30;;
78004;SDS011;67209;51.698;-0.292;2023-04-25T04:39:26;14.82;;;3.42;;
78004;SDS011;67209;51.698;-0.292;2023-04-25T04:41:52;15.07;;;3.22;;
78004;SDS011;67209;51.698;-0.292;2023-04-25T04:44:18;13.95;;;2.88;;
78004;SDS011;67209;51.698;-0.292;2023-04-25T04:46:44;12.73;;;3.15;;
78004;SDS011;67209;51.698;-0.292;2023-04-25T04:49:11;11.82;;;2.55;;
78004;SDS011;67209;51.698;-0.292;2023-04-25T04:51:38;6.53;;;2.20;;
78004;SDS011;67209;51.698;-0.292;2023-04-25T04:54:06;10.57;;;2.80;;
78004;SDS011;67209;51.698;-0.292;2023-04-25T04:56:32;10.75;;;2.55;;
78004;SDS011;67209;51.698;-0.292;2023-04-25T04:58:58;10.90;;;2.25;;
78004;SDS011;67209;51.698;-0.292;2023-04-25T05:01:25;13.57;;;2.97;;
78004;SDS011;67209;51.698;-0.292;2023-04-25T05:03:51;10.57;;;2.55;;
78004;SDS011;67209;51.698;-0.292;2023-04-25T05:06:20;10.75;;;2.20;;
78004;SDS011;67209;51.698;-0.292;2023-04-25T05:08:46;9.05;;;2.70;;
78004;SDS011;67209;51.698;-0.292;2023-04-25T05:11:12;8.82;;;2.88;;
78004;SDS011;67209;51.698;-0.292;2023-04-25T05:13:38;10.52;;;2.53;;
78004;SDS011;67209;51.698;-0.292;2023-04-25T05:16:04;11.93;;;3.42;;
78004;SDS011;67209;51.698;-0.292;2023-04-25T05:18:30;5.47;;;2.47;;
78004;SDS011;67209;51.698;-0.292;2023-04-25T05:20:56;10.25;;;2.83;;
78004;SDS011;67209;51.698;-0.292;2023-04-25T05:23:22;12.10;;;2.72;;
78004;SDS011;67209;51.698;-0.292;2023-04-25T05:25:48;15.45;;;3.10;;
78004;SDS011;67209;51.698;-0.292;2023-04-25T05:28:14;9.20;;;2.47;;
78004;SDS011;67209;51.698;-0.292;2023-04-25T05:30:40;14.05;;;3.25;;
78004;SDS011;67209;51.698;-0.292;2023-04-25T05:33:06;12.80;;;2.70;;
78004;SDS011;67209;51.698;-0.292;2023-04-25T05:35:32;7.50;;;2.58;;
78004;SDS011;67209;51.698;-0.292;2023-04-25T05:37:58;12.52;;;2.90;;
78004;SDS011;67209;51.698;-0.292;2023-04-25T05:40:24;9.93;;;2.65;;
78004;SDS011;67209;51.698;-0.292;2023-04-25T05:42:50;10.93;;;2.42;;
78004;SDS011;67209;51.698;-0.292;2023-04-25T05:45:16;8.27;;;3.38;;
78004;SDS011;67209;51.698;-0.292;2023-04-25T05:47:42;12.20;;;2.63;;
78004;SDS011;67209;51.698;-0.292;2023-04-25T05:50:09;8.63;;;2.78;;
78004;SDS011;67209;51.698;-0.292;2023-04-25T05:52:35;9.15;;;2.22;;
78004;SDS011;67209;51.698;-0.292;2023-04-25T05:55:01;9.10;;;2.28;;
78004;SDS011;67209;51.698;-0.292;2023-04-25T05:57:27;11.48;;;2.90;;
78004;SDS011;67209;51.698;-0.292;2023-04-25T05:59:53;12.60;;;2.97;;
78004;SDS011;67209;51.698;-0.292;2023-04-25T06:02:19;7.25;;;2.63;;
78004;SDS011;67209;51.698;-0.292;2023-04-25T06:04:46;10.88;;;2.50;;
78004;SDS011;67209;51.698;-0.292;2023-04-25T06:07:12;7.45;;;2.13;;
78004;SDS011;67209;51.698;-0.292;2023-04-25T06:09:38;7.05;;;2.15;;
78004;SDS011;67209;51.698;-0.292;2023-04-25T06:12:05;8.60;;;2.65;;
78004;SDS011;67209;51.698;-0.292;2023-04-25T06:14:31;9.43;;;2.20;;
78004;SDS011;67209;51.698;-0.292;2023-04-25T06:16:58;10.00;;;3.13;;
78004;SDS011;67209;51.698;-0.292;2023-04-25T06:19:24;12.18;;;3.67;;
78004;SDS011;67209;51.698;-0.292;2023-04-25T06:21:50;11.13;;;2.50;;
78004;SDS011;67209;51.698;-0.292;2023-04-25T06:24:16;8.43;;;2.33;;
78004;SDS011;67209;51.698;-0.292;2023-04-25T06:26:42;17.90;;;3.50;;
78004;SDS011;67209;51.698;-0.292;2023-04-25T06:29:07;9.23;;;2.58;;
78004;SDS011;67209;51.698;-0.292;2023-04-25T06:31:34;7.00;;;2.80;;
78004;SDS011;67209;51.698;-0.292;2023-04-25T06:34:00;9.52;;;2.45;;
78004;SDS011;67209;51.698;-0.292;2023-04-25T06:36:26;10.45;;;2.85;;
78004;SDS011;67209;51.698;-0.292;2023-04-25T06:38:52;9.52;;;2.25;;
78004;SDS011;67209;51.698;-0.292;2023-04-25T06:41:19;9.05;;;2.47;;
78004;SDS011;67209;51.698;-0.292;2023-04-25T06:43:45;7.38;;;1.92;;
78004;SDS011;67209;51.698;-0.292;2023-04-25T06:46:11;6.03;;;2.65;;
78004;SDS011;67209;51.698;-0.292;2023-04-25T06:48:37;7.13;;;1.95;;
78004;SDS011;67209;51.698;-0.292;2023-04-25T06:51:03;8.55;;;2.85;;
78004;SDS011;67209;51.698;-0.292;2023-04-25T06:53:29;11.45;;;2.40;;
78004;SDS011;67209;51.698;-0.292;2023-04-25T06:55:55;13.63;;;2.60;;
78004;SDS011;67209;51.698;-0.292;2023-04-25T06:58:21;11.27;;;2.58;;
78004;SDS011;67209;51.698;-0.292;2023-04-25T07:00:47;12.00;;;2.75;;
78004;SDS011;67209;51.698;-0.292;2023-04-25T07:03:14;11.57;;;2.63;;
78004;SDS011;67209;51.698;-0.292;2023-04-25T07:05:40;11.65;;;2.70;;
78004;SDS011;67209;51.698;-0.292;2023-04-25T07:08:06;4.88;;;1.27;;
78004;SDS011;67209;51.698;-0.292;2023-04-25T07:10:32;8.18;;;2.42;;
78004;SDS011;67209;51.698;-0.292;2023-04-25T07:12:58;6.85;;;2.42;;
78004;SDS011;67209;51.698;-0.292;2023-04-25T07:15:25;5.55;;;1.50;;
78004;SDS011;67209;51.698;-0.292;2023-04-25T07:17:51;7.78;;;2.33;;
78004;SDS011;67209;51.698;-0.292;2023-04-25T07:20:17;4.65;;;1.48;;
78004;SDS011;67209;51.698;-0.292;2023-04-25T07:22:43;8.15;;;1.50;;
78004;SDS011;67209;51.698;-0.292;2023-04-25T07:25:09;10.40;;;2.30;;
78004;SDS011;67209;51.698;-0.292;2023-04-25T07:27:35;6.75;;;2.22;;
78004;SDS011;67209;51.698;-0.292;2023-04-25T07:30:01;6.72;;;1.58;;
78004;SDS011;67209;51.698;-0.292;2023-04-25T07:32:28;9.25;;;1.77;;
78004;SDS011;67209;51.698;-0.292;2023-04-25T07:34:54;4.05;;;1.50;;
78004;SDS011;67209;51.698;-0.292;2023-04-25T07:37:20;7.43;;;1.73;;
78004;SDS011;67209;51.698;-0.292;2023-04-25T07:39:46;7.25;;;2.45;;
78004;SDS011;67209;51.698;-0.292;2023-04-25T07:42:13;7.10;;;1.90;;
78004;SDS011;67209;51.698;-0.292;2023-04-25T07:44:39;7.22;;;2.45;;
78004;SDS011;67209;51.698;-0.292;2023-04-25T07:47:06;6.32;;;1.20;;
78004;SDS011;67209;51.698;-0.292;2023-04-25T07:49:33;5.65;;;1.98;;
78004;SDS011;67209;51.698;-0.292;2023-04-25T07:52:03;9.82;;;1.65;;
78004;SDS011;67209;51.698;-0.292;2023-04-25T07:54:30;6.35;;;1.88;;
78004;SDS011;67209;51.698;-0.292;2023-04-25T07:56:56;5.32;;;1.85;;
78004;SDS011;67209;51.698;-0.292;2023-04-25T07:59:22;6.38;;;1.55;;
78004;SDS011;67209;51.698;-0.292;2023-04-25T08:01:48;6.63;;;1.85;;
78004;SDS011;67209;51.698;-0.292;2023-04-25T08:04:14;6.43;;;1.83;;
78004;SDS011;67209;51.698;-0.292;2023-04-25T08:06:40;4.00;;;1.23;;
78004;SDS011;67209;51.698;-0.292;2023-04-25T08:09:06;8.40;;;1.63;;
78004;SDS011;67209;51.698;-0.292;2023-04-25T08:11:34;5.55;;;1.85;;
78004;SDS011;67209;51.698;-0.292;2023-04-25T08:14:00;8.68;;;2.10;;
78004;SDS011;67209;51.698;-0.292;2023-04-25T08:16:27;5.80;;;1.92;;
78004;SDS011;67209;51.698;-0.292;2023-04-25T08:18:53;5.97;;;1.13;;
78004;SDS011;67209;51.698;-0.292;2023-04-25T08:21:19;6.32;;;1.70;;
78004;SDS011;67209;51.698;-0.292;2023-04-25T08:23:45;7.38;;;1.83;;
78004;SDS011;67209;51.698;-0.292;2023-04-25T08:26:11;8.07;;;2.05;;
78004;SDS011;67209;51.698;-0.292;2023-04-25T08:28:37;5.30;;;1.83;;
78004;SDS011;67209;51.698;-0.292;2023-04-25T08:31:03;5.45;;;1.33;;
78004;SDS011;67209;51.698;-0.292;2023-04-25T08:33:29;5.93;;;1.70;;
78004;SDS011;67209;51.698;-0.292;2023-04-25T08:35:57;10.88;;;2.25;;
78004;SDS011;67209;51.698;-0.292;2023-04-25T08:38:23;5.13;;;1.90;;
78004;SDS011;67209;51.698;-0.292;2023-04-25T08:40:49;6.25;;;1.48;;
78004;SDS011;67209;51.698;-0.292;2023-04-25T08:43:19;10.70;;;2.10;;
78004;SDS011;67209;51.698;-0.292;2023-04-25T08:45:45;7.43;;;1.83;;
78004;SDS011;67209;51.698;-0.292;2023-04-25T08:48:12;7.85;;;1.85;;
78004;SDS011;67209;51.698;-0.292;2023-04-25T08:50:45;5.28;;;1.25;;
78004;SDS011;67209;51.698;-0.292;2023-04-25T08:53:12;4.55;;;1.55;;
78004;SDS011;67209;51.698;-0.292;2023-04-25T08:55:43;9.23;;;2.10;;
78004;SDS011;67209;51.698;-0.292;2023-04-25T08:58:10;7.03;;;2.30;;
78004;SDS011;67209;51.698;-0.292;2023-04-25T09:00:37;7.30;;;1.92;;
78004;SDS011;67209;51.698;-0.292;2023-04-25T09:03:04;7.40;;;1.95;;
78004;SDS011;67209;51.698;-0.292;2023-04-25T09:05:30;2.95;;;1.05;;
78004;SDS011;67209;51.698;-0.292;2023-04-25T09:07:57;4.72;;;1.38;;
78004;SDS011;67209;51.698;-0.292;2023-04-25T09:10:23;7.07;;;1.70;;
78004;SDS011;67209;51.698;-0.292;2023-04-25T09:13:05;5.90;;;1.58;;
78004;SDS011;67209;51.698;-0.292;2023-04-25T09:15:32;3.97;;;1.30;;
78004;SDS011;67209;51.698;-0.292;2023-04-25T09:17:58;9.07;;;1.52;;
78004;SDS011;67209;51.698;-0.292;2023-04-25T09:20:24;6.22;;;1.70;;
78004;SDS011;67209;51.698;-0.292;2023-04-25T09:23:00;5.78;;;1.50;;
78004;SDS011;67209;51.698;-0.292;2023-04-25T09:25:27;4.53;;;1.35;;
78004;SDS011;67209;51.698;-0.292;2023-04-25T09:28:00;2.95;;;1.00;;
78004;SDS011;67209;51.698;-0.292;2023-04-25T09:30:29;6.43;;;1.80;;
78004;SDS011;67209;51.698;-0.292;2023-04-25T09:33:05;4.78;;;1.70;;
78004;SDS011;67209;51.698;-0.292;2023-04-25T09:35:38;5.18;;;1.52;;
78004;SDS011;67209;51.698;-0.292;2023-04-25T09:38:14;6.70;;;2.10;;
78004;SDS011;67209;51.698;-0.292;2023-04-25T09:40:46;3.70;;;1.10;;
78004;SDS011;67209;51.698;-0.292;2023-04-25T09:43:21;6.35;;;2.10;;
78004;SDS011;67209;51.698;-0.292;2023-04-25T09:45:47;9.40;;;2.13;;
78004;SDS011;67209;51.698;-0.292;2023-04-25T09:48:17;9.63;;;2.22;;
78004;SDS011;67209;51.698;-0.292;2023-04-25T09:50:44;10.52;;;2.85;;
78004;SDS011;67209;51.698;-0.292;2023-04-25T09:53:11;5.20;;;1.50;;
78004;SDS011;67209;51.698;-0.292;2023-04-25T09:55:37;6.22;;;1.50;;
78004;SDS011;67209;51.698;-0.292;2023-04-25T09:58:04;4.13;;;1.30;;
78004;SDS011;67209;51.698;-0.292;2023-04-25T10:00:33;4.78;;;1.52;;
78004;SDS011;67209;51.698;-0.292;2023-04-25T10:03:00;9.25;;;2.00;;
78004;SDS011;67209;51.698;-0.292;2023-04-25T10:05:29;4.38;;;1.30;;
78004;SDS011;67209;51.698;-0.292;2023-04-25T10:07:57;6.55;;;1.80;;
78004;SDS011;67209;51.698;-0.292;2023-04-25T10:10:23;7.05;;;1.83;;
78004;SDS011;67209;51.698;-0.292;2023-04-25T10:12:52;7.18;;;2.13;;
78004;SDS011;67209;51.698;-0.292;2023-04-25T10:15:19;6.70;;;1.45;;
78004;SDS011;67209;51.698;-0.292;2023-04-25T10:17:45;6.78;;;1.33;;
78004;SDS011;67209;51.698;-0.292;2023-04-25T10:20:11;5.47;;;1.48;;
78004;SDS011;67209;51.698;-0.292;2023-04-25T10:22:44;8.40;;;2.08;;
78004;SDS011;67209;51.698;-0.292;2023-04-25T10:25:11;4.43;;;1.45;;
78004;SDS011;67209;51.698;-0.292;2023-04-25T10:27:38;8.27;;;1.60;;
78004;SDS011;67209;51.698;-0.292;2023-04-25T10:30:08;4.28;;;1.55;;
78004;SDS011;67209;51.698;-0.292;2023-04-25T10:32:39;7.35;;;1.92;;
78004;SDS011;67209;51.698;-0.292;2023-04-25T10:35:17;6.82;;;1.20;;
78004;SDS011;67209;51.698;-0.292;2023-04-25T10:40:28;4.80;;;1.35;;
78004;SDS011;67209;51.698;-0.292;2023-04-25T10:42:55;5.65;;;2.00;;
78004;SDS011;67209;51.698;-0.292;2023-04-25T10:45:21;5.47;;;1.85;;
78004;SDS011;67209;51.698;-0.292;2023-04-25T10:47:47;6.38;;;1.70;;
78004;SDS011;67209;51.698;-0.292;2023-04-25T10:50:14;5.20;;;1.67;;
78004;SDS011;67209;51.698;-0.292;2023-04-25T10:52:41;3.83;;;1.38;;
78004;SDS011;67209;51.698;-0.292;2023-04-25T10:55:07;3.15;;;1.23;;
78004;SDS011;67209;51.698;-0.292;2023-04-25T10:57:43;5.28;;;1.60;;
78004;SDS011;67209;51.698;-0.292;2023-04-25T11:00:16;7.10;;;2.30;;
78004;SDS011;67209;51.698;-0.292;2023-04-25T11:02:43;3.80;;;1.55;;
78004;SDS011;67209;51.698;-0.292;2023-04-25T11:05:10;3.47;;;1.23;;
78004;SDS011;67209;51.698;-0.292;2023-04-25T11:10:09;4.10;;;1.58;;
78004;SDS011;67209;51.698;-0.292;2023-04-25T11:12:35;7.93;;;2.40;;
78004;SDS011;67209;51.698;-0.292;2023-04-25T11:15:05;5.90;;;1.95;;
78004;SDS011;67209;51.698;-0.292;2023-04-25T11:17:31;6.20;;;1.85;;
78004;SDS011;67209;51.698;-0.292;2023-04-25T11:19:58;5.13;;;1.42;;
78004;SDS011;67209;51.698;-0.292;2023-04-25T11:22:24;3.97;;;1.40;;
78004;SDS011;67209;51.698;-0.292;2023-04-25T11:24:50;4.47;;;1.58;;
78004;SDS011;67209;51.698;-0.292;2023-04-25T11:27:16;6.95;;;2.10;;
78004;SDS011;67209;51.698;-0.292;2023-04-25T11:29:42;3.92;;;1.10;;
78004;SDS011;67209;51.698;-0.292;2023-04-25T11:32:08;6.22;;;1.77;;
78004;SDS011;67209;51.698;-0.292;2023-04-25T11:34:35;5.00;;;1.80;;
78004;SDS011;67209;51.698;-0.292;2023-04-25T11:37:01;5.32;;;1.90;;
78004;SDS011;67209;51.698;-0.292;2023-04-25T11:39:27;5.82;;;1.50;;
78004;SDS011;67209;51.698;-0.292;2023-04-25T11:41:54;8.15;;;1.80;;
78004;SDS011;67209;51.698;-0.292;2023-04-25T11:44:20;5.90;;;1.88;;
78004;SDS011;67209;51.698;-0.292;2023-04-25T11:46:46;7.32;;;2.20;;
78004;SDS011;67209;51.698;-0.292;2023-04-25T11:49:13;5.18;;;1.52;;
78004;SDS011;67209;51.698;-0.292;2023-04-25T11:51:39;5.55;;;1.58;;
78004;SDS011;67209;51.698;-0.292;2023-04-25T11:54:05;3.50;;;1.40;;
78004;SDS011;67209;51.698;-0.292;2023-04-25T11:56:32;2.85;;;1.40;;
78004;SDS011;67209;51.698;-0.292;2023-04-25T11:58:59;5.68;;;1.85;;
78004;SDS011;67209;51.698;-0.292;2023-04-25T12:03:52;4.25;;;1.55;;
78004;SDS011;67209;51.698;-0.292;2023-04-25T12:06:18;7.72;;;1.88;;
78004;SDS011;67209;51.698;-0.292;2023-04-25T12:09:02;4.55;;;1.73;;
78004;SDS011;67209;51.698;-0.292;2023-04-25T12:11:32;5.22;;;1.88;;
78004;SDS011;67209;51.698;-0.292;2023-04-25T12:14:02;5.40;;;2.05;;
78004;SDS011;67209;51.698;-0.292;2023-04-25T12:16:28;4.28;;;1.30;;
78004;SDS011;67209;51.698;-0.292;2023-04-25T12:18:55;4.70;;;1.92;;
78004;SDS011;67209;51.698;-0.292;2023-04-25T12:21:24;4.75;;;2.05;;
78004;SDS011;67209;51.698;-0.292;2023-04-25T12:23:53;3.65;;;1.52;;
78004;SDS011;67209;51.698;-0.292;2023-04-25T12:26:19;3.55;;;1.70;;
78004;SDS011;67209;51.698;-0.292;2023-04-25T12:28:45;5.20;;;1.30;;
78004;SDS011;67209;51.698;-0.292;2023-04-25T12:31:12;4.55;;;2.03;;
78004;SDS011;67209;51.698;-0.292;2023-04-25T12:33:40;5.53;;;1.75;;
78004;SDS011;67209;51.698;-0.292;2023-04-25T12:36:07;5.25;;;1.50;;
78004;SDS011;67209;51.698;-0.292;2023-04-25T12:38:36;5.55;;;1.70;;
78004;SDS011;67209;51.698;-0.292;2023-04-25T12:41:02;4.40;;;1.33;;
78004;SDS011;67209;51.698;-0.292;2023-04-25T12:43:28;4.80;;;1.90;;
78004;SDS011;67209;51.698;-0.292;2023-04-25T12:45:54;5.20;;;1.83;;
78004;SDS011;67209;51.698;-0.292;2023-04-25T12:48:21;4.20;;;1.98;;
78004;SDS011;67209;51.698;-0.292;2023-04-25T12:50:48;4.25;;;2.22;;
78004;SDS011;67209;51.698;-0.292;2023-04-25T12:53:14;5.05;;;2.03;;
78004;SDS011;67209;51.698;-0.292;2023-04-25T12:55:40;5.68;;;1.77;;
78004;SDS011;67209;51.698;-0.292;2023-04-25T12:58:07;6.45;;;1.55;;
78004;SDS011;67209;51.698;-0.292;2023-04-25T13:00:33;6.05;;;1.65;;
78004;SDS011;67209;51.698;-0.292;2023-04-25T13:02:59;8.25;;;2.58;;
78004;SDS011;67209;51.698;-0.292;2023-04-25T13:05:25;4.65;;;1.90;;
78004;SDS011;67209;51.698;-0.292;2023-04-25T13:07:51;4.70;;;1.60;;
78004;SDS011;67209;51.698;-0.292;2023-04-25T13:10:17;5.65;;;1.88;;
78004;SDS011;67209;51.698;-0.292;2023-04-25T13:12:43;3.55;;;1.60;;
78004;SDS011;67209;51.698;-0.292;2023-04-25T13:15:10;3.65;;;1.45;;
78004;SDS011;67209;51.698;-0.292;2023-04-25T13:17:37;6.55;;;2.50;;
78004;SDS011;67209;51.698;-0.292;2023-04-25T13:20:04;8.05;;;2.05;;
78004;SDS011;67209;51.698;-0.292;2023-04-25T13:22:40;5.10;;;2.00;;
78004;SDS011;67209;51.698;-0.292;2023-04-25T13:25:07;4.85;;;1.95;;
78004;SDS011;67209;51.698;-0.292;2023-04-25T13:27:33;3.60;;;2.10;;
78004;SDS011;67209;51.698;-0.292;2023-04-25T13:30:01;6.47;;;2.25;;
78004;SDS011;67209;51.698;-0.292;2023-04-25T13:34:57;5.95;;;2.53;;
78004;SDS011;67209;51.698;-0.292;2023-04-25T13:37:23;3.33;;;1.73;;
78004;SDS011;67209;51.698;-0.292;2023-04-25T13:39:50;5.22;;;2.38;;
78004;SDS011;67209;51.698;-0.292;2023-04-25T13:42:16;4.63;;;1.92;;
78004;SDS011;67209;51.698;-0.292;2023-04-25T13:44:42;4.95;;;1.95;;
78004;SDS011;67209;51.698;-0.292;2023-04-25T13:47:08;5.63;;;2.00;;
78004;SDS011;67209;51.698;-0.292;2023-04-25T13:49:34;6.35;;;2.25;;
78004;SDS011;67209;51.698;-0.292;2023-04-25T13:52:00;4.82;;;1.98;;
78004;SDS011;67209;51.698;-0.292;2023-04-25T13:54:26;6.50;;;1.90;;
78004;SDS011;67209;51.698;-0.292;2023-04-25T13:56:52;8.48;;;2.45;;
78004;SDS011;67209;51.698;-0.292;2023-04-25T14:01:50;4.18;;;2.20;;
78004;SDS011;67209;51.698;-0.292;2023-04-25T14:04:16;5.60;;;2.05;;
78004;SDS011;67209;51.698;-0.292;2023-04-25T14:06:42;4.75;;;1.92;;
78004;SDS011;67209;51.698;-0.292;2023-04-25T14:09:08;4.90;;;2.40;;
78004;SDS011;67209;51.698;-0.292;2023-04-25T14:11:38;3.97;;;1.90;;
78004;SDS011;67209;51.698;-0.292;2023-04-25T14:14:04;4.43;;;2.30;;
78004;SDS011;67209;51.698;-0.292;2023-04-25T14:16:30;6.97;;;2.08;;
78004;SDS011;67209;51.698;-0.292;2023-04-25T14:18:57;2.78;;;1.73;;
78004;SDS011;67209;51.698;-0.292;2023-04-25T14:21:23;5.40;;;2.30;;
78004;SDS011;67209;51.698;-0.292;2023-04-25T14:23:50;5.47;;;2.17;;
78004;SDS011;67209;51.698;-0.292;2023-04-25T14:26:16;3.95;;;2.20;;
78004;SDS011;67209;51.698;-0.292;2023-04-25T14:28:42;4.78;;;2.13;;
78004;SDS011;67209;51.698;-0.292;2023-04-25T14:31:08;5.70;;;2.38;;
78004;SDS011;67209;51.698;-0.292;2023-04-25T14:33:34;5.57;;;2.85;;
78004;SDS011;67209;51.698;-0.292;2023-04-25T14:36:00;5.95;;;2.35;;
78004;SDS011;67209;51.698;-0.292;2023-04-25T14:38:26;5.55;;;2.30;;
78004;SDS011;67209;51.698;-0.292;2023-04-25T14:40:52;6.13;;;2.47;;